Time;durP1;ratioP1;P1;durP2;ratioP2;P2;SDS_P1;SDS_P2;PMS_P1;PMS_P2;Temp;Humidity;BMP_temperature;BMP_pressure;BME280_temperature;BME280_humidity;BME280_pressure;Samples;Min_cycle;Max_cycle;Signal;HPM_P1;HPM_P2
2023/01/21 00:00:13;;;;;;;3.83;3.53;;;15.60;53.70;16.30;101469.00;;;;5010648;28;20657;-46
2023/01/21 00:02:39;;;;;;;3.97;3.57;;;15.50;53.80;16.20;101478.00;;;;5009882;28;20258;-46
2023/01/21 00:05:05;;;;;;;3.80;3.50;;;15.50;53.90;16.20;101483.00;;;;5013085;28;20251;-47
2023/01/21 00:07:30;;;;;;;3.83;3.53;;;15.50;54.00;16.20;101494.00;;;;5012091;28;20178;-47
2023/01/21 00:09:56;;;;;;;4.07;3.67;;;15.50;54.00;16.20;101499.00;;;;5011038;28;20712;-47
2023/01/21 00:12:22;;;;;;;3.80;3.50;;;15.60;54.10;16.20;101488.00;;;;5010884;28;20171;-46
2023/01/21 00:14:48;;;;;;;3.97;3.60;;;15.60;54.20;16.20;101505.00;;;;5010949;28;20584;-46
2023/01/21 00:17:13;;;;;;;3.97;3.57;;;15.50;54.20;16.20;101493.00;;;;5011118;28;20680;-46
2023/01/21 00:19:39;;;;;;;4.10;3.40;;;15.50;54.20;16.20;101502.00;;;;4974199;28;1058956;-47
2023/01/21 00:22:05;;;;;;;3.53;3.23;;;15.40;54.30;16.10;101517.00;;;;5011753;28;20160;-46
2023/01/21 00:24:30;;;;;;;3.60;3.30;;;15.40;54.30;16.10;101518.00;;;;5010302;28;20183;-45
2023/01/21 00:26:56;;;;;;;4.10;3.60;;;15.40;54.40;16.10;101523.00;;;;5010488;28;20180;-46
2023/01/21 00:29:22;;;;;;;3.50;3.20;;;15.40;54.40;16.10;101521.00;;;;5011375;28;20806;-46
2023/01/21 00:31:48;;;;;;;4.27;3.40;;;15.40;54.40;16.10;101532.00;;;;5010768;28;20230;-46
2023/01/21 00:34:14;;;;;;;3.30;3.10;;;15.30;54.40;16.10;101535.00;;;;5010794;28;20198;-46
2023/01/21 00:36:39;;;;;;;3.57;3.10;;;15.30;54.40;16.10;101542.00;;;;5021843;28;20518;-46
2023/01/21 00:39:06;;;;;;;3.50;3.20;;;15.30;54.50;16.00;101548.00;;;;5011513;28;20187;-45
2023/01/21 00:41:32;;;;;;;3.40;3.10;;;15.30;54.60;16.00;101549.00;;;;5010448;28;20175;-46
2023/01/21 00:43:58;;;;;;;3.73;3.43;;;15.30;54.70;16.00;101542.00;;;;5010871;28;20176;-46
2023/01/21 00:46:23;;;;;;;3.50;3.20;;;15.30;54.80;16.00;101558.00;;;;5010720;28;20175;-47
2023/01/21 00:48:49;;;;;;;3.40;3.13;;;15.30;54.80;16.00;101538.00;;;;5010663;28;20191;-45
2023/01/21 00:51:15;;;;;;;3.40;3.10;;;15.20;54.80;16.00;101557.00;;;;5009412;28;20257;-45
2023/01/21 00:53:41;;;;;;;3.30;3.00;;;15.20;54.80;15.90;101552.00;;;;5010643;28;20168;-46
2023/01/21 00:56:11;;;;;;;3.50;3.20;;;15.10;54.80;15.90;101570.00;;;;5010472;28;20172;-45
2023/01/21 00:58:36;;;;;;;3.50;3.20;;;15.20;54.90;15.90;101558.00;;;;5010267;28;20194;-46
2023/01/21 01:01:10;;;;;;;3.10;2.90;;;15.10;54.90;15.90;101571.00;;;;5011384;28;20258;-46
2023/01/21 01:03:36;;;;;;;3.33;3.03;;;15.10;54.90;15.90;101580.00;;;;5021641;28;20168;-46
2023/01/21 01:06:07;;;;;;;3.03;2.83;;;15.10;54.80;15.90;101576.00;;;;5024998;28;20184;-46
2023/01/21 01:08:33;;;;;;;3.20;2.90;;;15.00;54.70;15.90;101571.00;;;;5015960;28;20195;-46
2023/01/21 01:10:59;;;;;;;3.23;3.00;;;15.10;54.90;15.80;101589.00;;;;5011308;28;20279;-46
2023/01/21 01:13:24;;;;;;;3.40;3.10;;;15.00;54.80;15.80;101585.00;;;;5010981;28;20183;-46
2023/01/21 01:15:54;;;;;;;3.20;3.00;;;15.00;54.80;15.80;101590.00;;;;5010725;28;20167;-47
2023/01/21 01:18:21;;;;;;;3.40;3.10;;;15.00;55.00;15.80;101595.00;;;;5010576;28;20210;-47
2023/01/21 01:20:47;;;;;;;3.37;3.07;;;15.00;55.10;15.80;101600.00;;;;5009755;28;20652;-46
2023/01/21 01:23:13;;;;;;;3.00;2.80;;;15.00;55.10;15.80;101603.00;;;;5009880;28;20241;-48
2023/01/21 01:25:39;;;;;;;3.23;2.93;;;15.00;55.10;15.70;101604.00;;;;5009906;28;20186;-47
2023/01/21 01:28:04;;;;;;;3.30;3.00;;;15.00;55.10;15.70;101601.00;;;;5013100;28;20556;-46
2023/01/21 01:30:30;;;;;;;3.20;3.00;;;15.00;55.30;15.70;101608.00;;;;5010630;28;20203;-46
2023/01/21 01:32:56;;;;;;;3.13;2.93;;;14.90;55.10;15.70;101616.00;;;;5010038;28;20194;-46
2023/01/21 01:35:22;;;;;;;3.33;3.03;;;14.90;55.40;15.70;101616.00;;;;5009663;28;20178;-48
2023/01/21 01:37:47;;;;;;;3.30;3.00;;;14.90;55.30;15.70;101628.00;;;;5010118;28;20213;-46
2023/01/21 01:40:14;;;;;;;4.00;2.90;;;14.90;55.40;15.60;101632.00;;;;5009782;28;20175;-47
2023/01/21 01:42:39;;;;;;;3.10;2.90;;;14.90;55.40;15.60;101643.00;;;;5022853;28;20188;-46
2023/01/21 01:45:13;;;;;;;3.00;2.80;;;14.80;55.50;15.60;101633.00;;;;5029550;28;20336;-47
2023/01/21 01:47:49;;;;;;;3.00;2.80;;;14.80;55.50;15.60;101639.00;;;;5009297;28;20164;-46
2023/01/21 01:50:17;;;;;;;3.47;3.17;;;14.80;55.60;15.60;101639.00;;;;4992976;28;20196;-46
2023/01/21 01:52:43;;;;;;;3.23;2.93;;;14.80;55.60;15.50;101639.00;;;;5008218;28;20707;-46
2023/01/21 01:55:09;;;;;;;3.47;3.17;;;14.80;55.60;15.50;101649.00;;;;5009509;28;20175;-46
2023/01/21 01:57:38;;;;;;;3.23;2.93;;;14.80;55.70;15.50;101653.00;;;;5008248;28;20546;-45
2023/01/21 02:00:05;;;;;;;3.00;2.80;;;14.70;55.60;15.50;101657.00;;;;5008205;28;20176;-46
2023/01/21 02:02:31;;;;;;;2.70;2.50;;;14.70;55.70;15.50;101661.00;;;;5007928;28;20271;-45
2023/01/21 02:05:00;;;;;;;3.00;2.80;;;14.70;55.70;15.40;101656.00;;;;5009575;28;20250;-46
2023/01/21 02:07:27;;;;;;;3.03;2.83;;;14.70;55.80;15.40;101664.00;;;;4992217;28;20274;-45
2023/01/21 02:09:52;;;;;;;2.97;2.77;;;14.70;55.80;15.40;101673.00;;;;5008688;28;20278;-46
2023/01/21 02:12:18;;;;;;;2.90;2.70;;;14.70;55.80;15.40;101679.00;;;;5008231;28;20203;-47
2023/01/21 02:14:44;;;;;;;2.90;2.70;;;14.70;55.80;15.40;101669.00;;;;4992133;28;20167;-46
2023/01/21 02:17:35;;;;;;;3.20;3.00;;;14.60;55.80;15.40;101686.00;;;;4991955;28;20175;-45
2023/01/21 02:20:46;;;;;;;2.83;2.63;;;14.60;56.50;15.30;101672.00;;;;4992426;28;20253;-47
2023/01/21 02:23:57;;;;;;;3.07;2.87;;;14.60;55.80;15.30;101683.00;;;;5009826;28;20820;-46
2023/01/21 02:26:52;;;;;;;2.83;2.63;;;14.60;55.90;15.30;101685.00;;;;5002217;28;20572;-46
2023/01/21 02:29:34;;;;;;;2.77;2.57;;;14.50;55.80;15.20;101686.00;;;;5007713;28;20230;-46
2023/01/21 02:32:03;;;;;;;3.10;2.90;;;14.50;55.90;15.20;101687.00;;;;5007429;28;20230;-45
2023/01/21 02:34:39;;;;;;;2.90;2.70;;;14.50;55.90;15.20;101685.00;;;;5007806;28;20175;-45
2023/01/21 02:37:28;;;;;;;2.90;2.70;;;14.50;56.00;15.20;101708.00;;;;5007943;28;20219;-48
2023/01/21 02:40:07;;;;;;;2.70;2.50;;;14.40;56.00;15.20;101704.00;;;;5005805;28;20215;-45
2023/01/21 02:42:45;;;;;;;3.10;2.90;;;14.50;56.00;15.10;101706.00;;;;5007454;28;20180;-46
2023/01/21 02:45:28;;;;;;;2.80;2.60;;;14.40;56.00;15.10;101698.00;;;;5009063;28;20206;-45
2023/01/21 02:48:06;;;;;;;2.90;2.70;;;14.40;56.00;15.10;101717.00;;;;4977355;28;20195;-45
2023/01/21 02:50:37;;;;;;;3.00;2.80;;;14.40;56.00;15.10;101702.00;;;;4991855;28;20245;-46
2023/01/21 02:53:03;;;;;;;2.80;2.60;;;14.30;56.00;15.10;101724.00;;;;4991584;28;20235;-46
2023/01/21 02:55:35;;;;;;;2.63;2.43;;;14.30;56.00;15.10;101702.00;;;;5009012;28;20259;-46
2023/01/21 02:58:09;;;;;;;2.90;2.70;;;14.30;56.10;15.00;101696.00;;;;5009797;28;20736;-46
2023/01/21 03:00:47;;;;;;;2.70;2.50;;;14.30;56.10;15.00;101715.00;;;;5008455;28;20167;-46
2023/01/21 03:03:39;;;;;;;2.87;2.67;;;14.30;56.20;15.00;101711.00;;;;4992246;28;20171;-46
2023/01/21 03:06:19;;;;;;;2.80;2.60;;;14.30;56.30;15.00;101723.00;;;;5008830;28;20239;-46
2023/01/21 03:08:52;;;;;;;2.53;2.33;;;14.20;56.20;14.90;101730.00;;;;5009064;28;20306;-47
2023/01/21 03:11:19;;;;;;;2.77;2.57;;;14.20;56.20;14.90;101711.00;;;;4991619;28;20196;-47
2023/01/21 03:16:57;;;;;;;2.70;2.50;;;14.20;56.20;14.90;101727.00;;;;4997721;28;20665;-46
2023/01/21 03:19:36;;;;;;;2.90;2.70;;;14.10;56.10;14.90;101731.00;;;;4995476;28;20215;-46
2023/01/21 03:22:11;;;;;;;2.60;2.40;;;14.20;56.20;14.90;101712.00;;;;4996545;28;20668;-46
2023/01/21 03:24:37;;;;;;;2.53;2.33;;;14.10;56.10;14.80;101748.00;;;;4995657;28;20175;-48
2023/01/21 03:27:03;;;;;;;2.70;2.50;;;14.10;56.10;14.80;101736.00;;;;4994554;28;20187;-47
2023/01/21 03:29:29;;;;;;;2.90;2.70;;;14.10;56.10;14.80;101734.00;;;;4994866;28;20222;-46
2023/01/21 03:32:03;;;;;;;2.80;2.60;;;14.10;56.10;14.80;101740.00;;;;4994227;28;20679;-46
2023/01/21 03:34:31;;;;;;;2.50;2.30;;;14.10;56.20;14.80;101735.00;;;;4994656;28;20163;-46
2023/01/21 03:37:08;;;;;;;2.80;2.60;;;14.00;56.10;14.70;101744.00;;;;5010986;28;20287;-46
2023/01/21 03:40:13;;;;;;;2.70;2.50;;;14.00;56.20;14.70;101748.00;;;;5018101;28;20250;-47
2023/01/21 03:42:41;;;;;;;2.70;2.50;;;14.00;56.20;14.70;101748.00;;;;5027157;28;20163;-46
2023/01/21 03:45:07;;;;;;;2.80;2.60;;;14.00;56.30;14.70;101755.00;;;;5003478;28;20168;-53
2023/01/21 03:47:37;;;;;;;2.60;2.40;;;14.00;56.20;14.70;101746.00;;;;5013607;28;20210;-47
2023/01/21 03:50:11;;;;;;;2.60;2.40;;;14.00;56.20;14.60;101760.00;;;;4995542;28;20258;-47
2023/01/21 03:52:44;;;;;;;2.60;2.40;;;13.90;56.20;14.60;101756.00;;;;5019491;28;20155;-47
2023/01/21 03:55:11;;;;;;;2.80;2.60;;;13.90;56.20;14.60;101769.00;;;;5019874;28;20172;-47
2023/01/21 03:57:37;;;;;;;2.70;2.50;;;13.90;56.20;14.60;101767.00;;;;5015950;28;20164;-46
2023/01/21 04:00:04;;;;;;;2.70;2.50;;;13.90;56.20;14.60;101764.00;;;;5011438;28;20230;-47
2023/01/21 04:02:30;;;;;;;2.73;2.53;;;13.90;56.70;14.60;101772.00;;;;5011491;28;20184;-47
2023/01/21 04:04:55;;;;;;;2.60;2.40;;;13.80;56.60;14.60;101776.00;;;;5011868;28;20171;-46
2023/01/21 04:07:21;;;;;;;2.70;2.50;;;13.80;56.60;14.60;101782.00;;;;5027400;28;20173;-47
2023/01/21 04:09:48;;;;;;;2.53;2.33;;;13.80;56.70;14.60;101782.00;;;;5011933;28;20192;-46
2023/01/21 04:12:14;;;;;;;2.20;2.10;;;13.80;56.60;14.60;101789.00;;;;5011453;28;20203;-47
2023/01/21 04:14:40;;;;;;;2.70;2.50;;;13.80;56.60;14.50;101778.00;;;;5011330;28;20179;-46
2023/01/21 04:17:05;;;;;;;2.83;2.63;;;13.80;56.60;14.60;101788.00;;;;5011502;28;20176;-47
2023/01/21 04:19:31;;;;;;;2.60;2.40;;;13.80;57.50;14.50;101789.00;;;;5011164;28;20191;-46
2023/01/21 04:21:57;;;;;;;2.43;2.23;;;13.70;56.50;14.50;101791.00;;;;5012495;28;20215;-47
2023/01/21 04:24:23;;;;;;;4.87;2.50;;;13.80;56.70;14.50;101793.00;;;;5025199;28;20190;-46
2023/01/21 04:26:48;;;;;;;2.60;2.40;;;13.70;56.60;14.50;101793.00;;;;5015518;28;20180;-46
2023/01/21 04:29:14;;;;;;;2.70;2.50;;;13.70;57.00;14.50;101802.00;;;;5013032;28;20206;-46
2023/01/21 04:31:40;;;;;;;5.30;2.80;;;13.70;56.90;14.50;101805.00;;;;5011183;28;20210;-46
2023/01/21 04:34:05;;;;;;;4.20;2.67;;;13.70;56.90;14.40;101796.00;;;;5013430;28;20559;-46
2023/01/21 04:36:31;;;;;;;3.63;2.63;;;13.70;56.80;14.40;101805.00;;;;5010969;28;20172;-46
2023/01/21 04:38:57;;;;;;;5.03;2.67;;;13.70;56.90;14.40;101818.00;;;;5010877;28;20862;-46
2023/01/21 04:41:22;;;;;;;5.80;2.57;;;13.60;57.00;14.40;101801.00;;;;5010332;28;20184;-46
2023/01/21 04:43:48;;;;;;;3.30;2.60;;;13.60;57.00;14.40;101811.00;;;;5010628;28;20176;-47
2023/01/21 04:46:14;;;;;;;5.97;2.90;;;13.60;56.80;14.40;101810.00;;;;5010245;28;20183;-47
2023/01/21 04:48:40;;;;;;;3.33;3.03;;;13.60;56.70;14.30;101814.00;;;;5010449;28;20199;-45
2023/01/21 04:51:06;;;;;;;4.40;2.80;;;13.60;56.60;14.30;101828.00;;;;5010245;28;20205;-46
2023/01/21 04:53:32;;;;;;;3.60;3.30;;;13.60;56.40;14.30;101823.00;;;;5010547;28;20184;-46
2023/01/21 04:55:58;;;;;;;3.40;3.10;;;13.50;56.30;14.30;101822.00;;;;5010378;28;20187;-45
2023/01/21 04:58:23;;;;;;;3.83;3.53;;;13.50;56.20;14.20;101830.00;;;;5010511;28;20192;-45
2023/01/21 05:00:49;;;;;;;3.90;3.57;;;13.50;56.00;14.20;101835.00;;;;5010407;28;20206;-46
2023/01/21 05:03:15;;;;;;;4.07;3.57;;;13.50;55.90;14.20;101829.00;;;;5010540;28;20230;-46
2023/01/21 05:05:40;;;;;;;3.97;3.63;;;13.50;55.80;14.20;101836.00;;;;5010288;28;20187;-46
2023/01/21 05:08:06;;;;;;;3.73;3.43;;;13.40;55.60;14.20;101838.00;;;;5010500;28;20206;-46
2023/01/21 05:10:32;;;;;;;3.80;3.50;;;13.40;55.50;14.10;101829.00;;;;5010228;28;20207;-48
2023/01/21 05:12:58;;;;;;;5.23;3.50;;;13.40;55.60;14.10;101843.00;;;;5009932;28;20187;-45
2023/01/21 05:15:23;;;;;;;4.17;3.77;;;13.40;55.60;14.10;101833.00;;;;5010127;28;20250;-46
2023/01/21 05:17:49;;;;;;;4.50;4.03;;;13.40;55.50;14.10;101844.00;;;;5009805;28;20196;-46
2023/01/21 05:20:15;;;;;;;4.00;3.70;;;13.40;55.60;14.10;101836.00;;;;5009702;28;20195;-47
2023/01/21 05:22:44;;;;;;;4.30;3.90;;;13.30;55.50;14.00;101838.00;;;;5009829;28;20164;-46
2023/01/21 05:25:10;;;;;;;6.77;4.13;;;13.30;55.50;14.00;101843.00;;;;4992296;28;20171;-46
2023/01/21 05:27:36;;;;;;;5.53;3.80;;;13.30;55.50;14.00;101850.00;;;;5009809;28;20186;-46
2023/01/21 05:30:02;;;;;;;4.20;3.80;;;13.30;55.50;14.00;101849.00;;;;5010125;28;20172;-46
2023/01/21 05:32:27;;;;;;;3.80;3.50;;;13.30;55.50;14.00;101849.00;;;;5010101;28;20222;-51
2023/01/21 05:34:53;;;;;;;4.00;3.40;;;13.30;55.50;14.00;101859.00;;;;5010724;28;20529;-46
2023/01/21 05:37:19;;;;;;;3.87;3.57;;;13.30;55.70;13.90;101863.00;;;;5009851;28;20187;-46
2023/01/21 05:39:44;;;;;;;5.10;3.50;;;13.30;55.80;13.90;101863.00;;;;5010304;28;20191;-45
2023/01/21 05:42:10;;;;;;;3.50;3.20;;;13.20;55.80;13.90;101880.00;;;;5010563;28;20270;-46
2023/01/21 05:44:36;;;;;;;5.17;3.40;;;13.20;55.90;13.90;101882.00;;;;5010693;28;20556;-48
2023/01/21 05:47:02;;;;;;;5.17;3.67;;;13.20;56.00;13.90;101882.00;;;;5010230;28;20179;-45
2023/01/21 05:49:27;;;;;;;3.70;3.27;;;13.20;55.90;13.90;101884.00;;;;5010269;28;20199;-48
2023/01/21 05:51:53;;;;;;;4.47;3.80;;;13.10;55.80;13.90;101889.00;;;;5009992;28;20199;-46
2023/01/21 05:54:19;;;;;;;4.27;3.87;;;13.10;55.60;13.80;101888.00;;;;5010405;28;20220;-46
2023/01/21 05:56:44;;;;;;;4.23;3.83;;;13.10;55.50;13.80;101894.00;;;;5010190;28;20649;-46
2023/01/21 05:59:10;;;;;;;5.30;3.97;;;13.10;55.60;13.80;101897.00;;;;5029941;28;20280;-46
2023/01/21 06:01:36;;;;;;;4.17;3.77;;;13.10;55.50;13.80;101907.00;;;;5029794;28;20182;-47
2023/01/21 06:04:02;;;;;;;5.27;4.00;;;13.10;55.50;13.80;101910.00;;;;5030348;28;20181;-46
2023/01/21 06:06:27;;;;;;;4.27;3.63;;;13.10;55.50;13.80;101919.00;;;;5029679;28;20178;-47
2023/01/21 06:08:53;;;;;;;4.17;3.70;;;13.00;55.40;13.70;101919.00;;;;5027788;28;20203;-47
2023/01/21 06:11:19;;;;;;;3.90;3.60;;;13.00;55.50;13.70;101920.00;;;;5028643;28;20326;-46
2023/01/21 06:13:45;;;;;;;3.90;3.60;;;13.00;55.60;13.80;101931.00;;;;5029441;28;20225;-46
2023/01/21 06:16:11;;;;;;;4.00;3.20;;;13.10;55.80;13.80;101919.00;;;;5029598;28;20198;-45
2023/01/21 06:18:36;;;;;;;3.50;3.20;;;13.10;55.80;13.80;101928.00;;;;5029246;28;20707;-46
2023/01/21 06:21:02;;;;;;;3.60;3.23;;;13.20;55.90;13.80;101922.00;;;;5029832;28;20274;-48
2023/01/21 06:23:28;;;;;;;3.70;3.20;;;13.20;55.80;13.90;101935.00;;;;5028894;28;20171;-47
2023/01/21 06:26:00;;;;;;;3.60;3.30;;;13.30;56.00;13.90;101934.00;;;;5028143;28;20211;-47
2023/01/21 06:28:26;;;;;;;4.37;3.07;;;13.40;56.00;14.00;101945.00;;;;5028988;28;20290;-47
2023/01/21 06:30:52;;;;;;;3.33;3.00;;;13.40;56.00;14.00;101942.00;;;;5029291;28;20274;-47
2023/01/21 06:33:18;;;;;;;2.90;2.70;;;13.50;56.00;14.10;101939.00;;;;5028828;28;20679;-46
2023/01/21 06:35:43;;;;;;;3.33;2.90;;;13.60;56.00;14.20;101944.00;;;;5029050;28;20171;-47
2023/01/21 06:38:09;;;;;;;3.20;2.90;;;13.70;56.00;14.30;101945.00;;;;5027667;28;20559;-47
2023/01/21 06:40:35;;;;;;;3.10;2.83;;;13.80;56.00;14.40;101956.00;;;;5029173;28;20171;-47
2023/01/21 06:43:01;;;;;;;3.10;2.80;;;13.80;55.90;14.40;101951.00;;;;5029502;28;20179;-47
2023/01/21 06:45:27;;;;;;;2.93;2.73;;;13.90;56.00;14.50;101953.00;;;;5028775;28;20568;-47
2023/01/21 06:47:52;;;;;;;3.00;2.70;;;14.10;56.10;14.60;101935.00;;;;5028663;28;20230;-47
2023/01/21 06:50:18;;;;;;;2.97;2.70;;;14.10;56.10;14.70;101976.00;;;;5031394;28;20250;-46
2023/01/21 06:52:45;;;;;;;2.90;2.70;;;14.20;56.10;14.80;101956.00;;;;5032387;28;20642;-46
2023/01/21 06:55:11;;;;;;;3.37;2.77;;;14.30;56.10;14.80;101957.00;;;;5047361;28;20207;-47
2023/01/21 06:57:37;;;;;;;2.70;2.50;;;14.20;56.00;14.90;101955.00;;;;5014964;28;20205;-46
2023/01/21 07:00:05;;;;;;;2.97;2.77;;;14.30;56.10;14.90;101957.00;;;;5032624;28;20174;-46
2023/01/21 07:02:30;;;;;;;3.03;2.83;;;14.40;56.10;15.00;101959.00;;;;5032639;28;20232;-46
2023/01/21 07:04:56;;;;;;;3.10;2.80;;;14.40;56.10;15.00;101961.00;;;;5040577;28;20183;-46
2023/01/21 07:07:22;;;;;;;3.23;3.00;;;14.40;56.00;15.10;101975.00;;;;5038548;28;20171;-46
2023/01/21 07:09:47;;;;;;;3.03;2.73;;;14.50;56.10;15.10;101974.00;;;;5032821;28;20622;-46
2023/01/21 07:12:13;;;;;;;2.80;2.60;;;14.50;56.10;15.10;101986.00;;;;5030827;28;20688;-46
2023/01/21 07:14:39;;;;;;;2.83;2.63;;;14.50;56.00;15.10;101980.00;;;;5031332;28;20175;-47
2023/01/21 07:17:05;;;;;;;3.23;2.93;;;14.60;56.20;15.20;101983.00;;;;5031974;28;20762;-46
2023/01/21 07:19:30;;;;;;;2.80;2.60;;;14.50;56.10;15.20;101985.00;;;;5030956;28;20540;-47
2023/01/21 07:21:56;;;;;;;3.13;2.83;;;14.60;56.20;15.20;101995.00;;;;5031594;28;20217;-46
2023/01/21 07:24:22;;;;;;;3.30;3.00;;;14.60;56.20;15.20;101992.00;;;;5032996;28;20205;-46
2023/01/21 07:26:48;;;;;;;2.83;2.63;;;14.60;56.20;15.30;101992.00;;;;5032509;28;20201;-46
2023/01/21 07:29:13;;;;;;;2.90;2.60;;;14.60;56.10;15.30;102006.00;;;;5032492;28;20195;-47
2023/01/21 07:31:39;;;;;;;2.90;2.70;;;14.60;56.20;15.30;102008.00;;;;5031718;28;20199;-46
2023/01/21 07:34:05;;;;;;;2.70;2.50;;;14.60;56.20;15.30;102011.00;;;;5032443;28;20171;-46
2023/01/21 07:36:31;;;;;;;2.87;2.67;;;14.60;56.20;15.30;102017.00;;;;5031544;28;20176;-45
2023/01/21 07:38:57;;;;;;;2.90;2.70;;;14.60;56.20;15.30;102024.00;;;;5031139;28;20214;-46
2023/01/21 07:41:22;;;;;;;3.20;2.90;;;14.70;56.30;15.30;102028.00;;;;5031007;28;20175;-46
2023/01/21 07:43:49;;;;;;;3.10;2.80;;;14.70;56.30;15.30;102030.00;;;;5028675;28;20175;-47
2023/01/21 07:46:18;;;;;;;2.80;2.60;;;14.70;56.30;15.40;102042.00;;;;5032203;28;20167;-46
2023/01/21 07:48:50;;;;;;;3.03;2.80;;;14.70;56.40;15.40;102035.00;;;;5032068;28;20191;-46
2023/01/21 07:51:19;;;;;;;2.83;2.63;;;14.70;56.40;15.40;102044.00;;;;5032115;28;20199;-48
2023/01/21 07:53:45;;;;;;;2.87;2.67;;;14.70;56.30;15.40;102036.00;;;;5032125;28;20693;-46
2023/01/21 07:56:11;;;;;;;3.10;2.90;;;14.70;56.30;15.40;102034.00;;;;5032271;28;20171;-47
2023/01/21 07:58:37;;;;;;;2.90;2.70;;;14.70;56.40;15.40;102040.00;;;;5031697;28;20229;-46
2023/01/21 08:01:07;;;;;;;3.07;2.80;;;14.70;56.60;15.40;102038.00;;;;5031463;28;20171;-46
2023/01/21 08:03:33;;;;;;;3.20;2.90;;;14.70;56.60;15.40;102034.00;;;;5031854;28;20182;-46
2023/01/21 08:05:59;;;;;;;3.13;2.83;;;14.70;56.50;15.40;102047.00;;;;5034679;28;20281;-46
2023/01/21 08:08:25;;;;;;;2.90;2.70;;;14.70;56.40;15.40;102051.00;;;;5036096;28;20211;-46
2023/01/21 08:10:56;;;;;;;2.80;2.60;;;14.70;56.40;15.40;102044.00;;;;5040247;28;20736;-46
2023/01/21 08:13:22;;;;;;;2.93;2.73;;;14.70;56.40;15.40;102055.00;;;;5040631;28;20151;-46
2023/01/21 08:15:54;;;;;;;3.23;2.80;;;14.70;56.40;15.40;102053.00;;;;5034263;28;20247;-46
2023/01/21 08:18:21;;;;;;;2.70;2.50;;;14.80;56.50;15.40;102050.00;;;;5034412;28;20215;-48
2023/01/21 08:20:47;;;;;;;2.73;2.53;;;14.80;56.50;15.50;102070.00;;;;5031062;28;20252;-46
2023/01/21 08:23:13;;;;;;;3.03;2.77;;;14.80;56.50;15.50;102059.00;;;;5031167;28;20179;-45
2023/01/21 08:25:38;;;;;;;2.77;2.57;;;14.80;56.50;15.50;102067.00;;;;5031292;28;20171;-46
2023/01/21 08:28:04;;;;;;;2.93;2.73;;;14.80;56.50;15.50;102068.00;;;;5030823;28;20201;-47
2023/01/21 08:30:30;;;;;;;2.87;2.67;;;14.80;56.40;15.50;102075.00;;;;5030776;28;20588;-46
2023/01/21 08:32:56;;;;;;;2.90;2.70;;;14.80;56.30;15.50;102088.00;;;;5030974;28;20242;-46
2023/01/21 08:35:22;;;;;;;3.00;2.80;;;14.80;56.30;15.50;102085.00;;;;5031003;28;20189;-46
2023/01/21 08:37:48;;;;;;;2.77;2.57;;;14.80;56.40;15.50;102082.00;;;;5030905;28;20675;-46
2023/01/21 08:40:14;;;;;;;2.83;2.60;;;14.80;56.50;15.50;102081.00;;;;5030766;28;20167;-46
2023/01/21 08:42:40;;;;;;;2.73;2.53;;;14.80;56.50;15.50;102088.00;;;;5030759;28;20182;-46
2023/01/21 08:45:06;;;;;;;3.00;2.80;;;14.80;56.70;15.50;102083.00;;;;5029652;28;20159;-46
2023/01/21 08:47:32;;;;;;;2.70;2.50;;;14.80;56.60;15.50;102096.00;;;;5030913;28;20171;-46
2023/01/21 08:49:58;;;;;;;3.07;2.87;;;14.80;56.50;15.50;102093.00;;;;5029307;28;20177;-46
2023/01/21 08:52:23;;;;;;;3.10;2.90;;;14.80;56.60;15.50;102096.00;;;;5030347;28;20230;-45
2023/01/21 08:54:49;;;;;;;3.30;3.00;;;14.80;56.60;15.50;102110.00;;;;5031174;28;20627;-49
2023/01/21 08:57:15;;;;;;;3.20;3.00;;;14.80;56.50;15.50;102102.00;;;;5030392;28;20180;-46
2023/01/21 08:59:40;;;;;;;3.73;2.93;;;14.80;56.40;15.50;102105.00;;;;5030341;28;20194;-46
2023/01/21 09:02:07;;;;;;;3.33;3.03;;;14.80;56.70;15.50;102111.00;;;;5029998;28;20233;-45
2023/01/21 09:04:33;;;;;;;3.20;2.90;;;14.80;56.70;15.50;102107.00;;;;5030674;28;20156;-47
2023/01/21 09:06:59;;;;;;;5.17;2.80;;;14.80;56.70;15.50;102113.00;;;;5030795;28;20170;-46
2023/01/21 09:09:24;;;;;;;8.00;3.30;;;14.80;56.90;15.50;102113.00;;;;5029288;28;20582;-46
2023/01/21 09:11:51;;;;;;;7.27;3.27;;;14.90;57.10;15.60;102122.00;;;;5029493;28;20633;-46
2023/01/21 09:14:18;;;;;;;4.03;3.63;;;14.90;56.90;15.60;102128.00;;;;5031140;28;20579;-47
2023/01/21 09:16:47;;;;;;;4.57;4.17;;;15.00;56.80;15.60;102129.00;;;;5030815;28;20190;-46
2023/01/21 09:19:13;;;;;;;5.47;4.50;;;15.00;56.40;15.70;102115.00;;;;5028358;28;20565;-46
2023/01/21 09:21:38;;;;;;;4.73;4.20;;;15.10;56.30;15.70;102125.00;;;;5028381;28;20179;-47
2023/01/21 09:24:05;;;;;;;9.20;4.67;;;15.20;56.10;15.80;102126.00;;;;5029036;28;20549;-46
2023/01/21 09:26:30;;;;;;;4.73;4.20;;;15.20;56.00;15.80;102132.00;;;;5029908;28;20207;-46
2023/01/21 09:29:00;;;;;;;5.20;4.30;;;15.30;56.20;15.90;102134.00;;;;5029721;28;20214;-47
2023/01/21 09:31:26;;;;;;;4.70;4.03;;;15.40;56.30;16.00;102136.00;;;;5027856;28;20221;-46
2023/01/21 09:33:58;;;;;;;4.60;4.20;;;15.40;56.50;16.10;102139.00;;;;5028399;28;20176;-46
2023/01/21 09:36:26;;;;;;;4.00;3.60;;;15.50;56.40;16.10;102134.00;;;;5029184;28;20159;-46
2023/01/21 09:38:52;;;;;;;4.00;3.70;;;15.60;56.40;16.20;102143.00;;;;5029613;28;20687;-47
2023/01/21 09:41:51;;;;;;;5.00;3.77;;;15.70;56.40;16.30;102149.00;;;;5029447;28;20171;-47
2023/01/21 09:44:42;;;;;;;3.80;3.50;;;15.70;57.00;16.40;102146.00;;;;5028572;28;20155;-46
2023/01/21 09:47:25;;;;;;;7.50;3.60;;;15.80;58.40;16.40;102137.00;;;;5027354;28;20235;-46
2023/01/21 09:50:18;;;;;;;5.03;3.40;;;15.80;58.60;16.50;102151.00;;;;5036127;28;20202;-46
2023/01/21 09:52:46;;;;;;;3.70;3.37;;;15.90;58.00;16.50;102154.00;;;;5028474;28;20200;-45
2023/01/21 09:55:34;;;;;;;6.83;3.30;;;15.90;57.60;16.60;102161.00;;;;5029347;28;20540;-46
2023/01/21 09:58:14;;;;;;;4.90;3.20;;;16.00;57.70;16.60;102169.00;;;;5018188;28;20196;-46
2023/01/21 10:00:55;;;;;;;3.90;3.27;;;16.00;57.60;16.70;102167.00;;;;5018529;28;20191;-46
2023/01/21 10:04:00;;;;;;;4.27;3.30;;;16.00;57.50;16.70;102170.00;;;;5009920;28;20175;-46
2023/01/21 10:07:07;;;;;;;6.20;3.20;;;16.00;57.40;16.80;102180.00;;;;5012557;28;20674;-48
2023/01/21 10:09:49;;;;;;;3.90;3.30;;;16.10;57.50;16.80;102171.00;;;;5005418;28;20308;-46
2023/01/21 10:12:40;;;;;;;4.13;3.30;;;16.10;57.40;16.80;102177.00;;;;5024834;28;20579;-45
2023/01/21 10:15:12;;;;;;;3.70;3.00;;;16.10;57.40;16.80;102175.00;;;;5027682;28;20187;-45
2023/01/21 10:18:22;;;;;;;4.00;3.23;;;16.20;57.40;16.90;102181.00;;;;5028158;28;20152;-46
2023/01/21 10:21:03;;;;;;;3.50;3.20;;;16.20;57.30;16.90;102177.00;;;;5008934;28;20228;-45
2023/01/21 10:23:41;;;;;;;4.17;3.20;;;16.20;57.30;16.90;102170.00;;;;5031606;28;20183;-54
2023/01/21 10:26:09;;;;;;;3.33;3.03;;;16.20;57.30;16.90;102171.00;;;;5032386;28;20511;-47
2023/01/21 10:28:37;;;;;;;3.40;3.07;;;16.30;57.40;16.90;102170.00;;;;5032188;28;20197;-48
2023/01/21 10:31:31;;;;;;;3.83;3.10;;;16.30;57.30;16.90;102150.00;;;;5031608;28;20222;-45
2023/01/21 10:33:57;;;;;;;3.27;3.07;;;16.30;57.30;16.90;102168.00;;;;5032352;28;20225;-46
2023/01/21 10:36:50;;;;;;;3.30;3.00;;;16.30;57.40;17.00;102171.00;;;;5033577;28;20254;-45
2023/01/21 10:39:46;;;;;;;2.97;2.77;;;16.30;57.40;17.00;102167.00;;;;5031811;28;20202;-46
2023/01/21 10:42:29;;;;;;;3.57;3.27;;;16.30;57.50;17.00;102171.00;;;;5033151;28;20162;-45
2023/01/21 10:45:02;;;;;;;3.53;3.23;;;16.40;57.50;17.00;102168.00;;;;5036971;28;20167;-46
2023/01/21 10:47:44;;;;;;;3.07;2.87;;;16.30;57.40;17.00;102169.00;;;;5035605;28;20167;-47
2023/01/21 10:50:28;;;;;;;4.13;3.10;;;16.40;57.60;17.00;102180.00;;;;5032348;28;20187;-45
2023/01/21 10:52:59;;;;;;;3.20;2.83;;;16.30;57.30;17.00;102179.00;;;;5033186;28;20262;-47
2023/01/21 10:55:28;;;;;;;3.23;2.80;;;16.40;57.20;17.00;102185.00;;;;5034019;28;20186;-46
2023/01/21 10:58:19;;;;;;;2.83;2.63;;;16.40;57.10;17.10;102184.00;;;;5032339;28;20539;-46
2023/01/21 11:00:46;;;;;;;3.10;2.90;;;16.40;57.00;17.10;102180.00;;;;5031914;28;20187;-48